sensor_id;sensor_type;location;lat;lon;timestamp;P1;durP1;ratioP1;P2;durP2;ratioP2
6288;SDS011;3177;49.880;8.836;2023-02-26T00:01:44;3.43;;;3.17;;
6288;SDS011;3177;49.880;8.836;2023-02-26T00:04:13;4.17;;;3.73;;
6288;SDS011;3177;49.880;8.836;2023-02-26T00:06:40;4.67;;;4.20;;
6288;SDS011;3177;49.880;8.836;2023-02-26T00:09:16;4.00;;;3.60;;
6288;SDS011;3177;49.880;8.836;2023-02-26T00:11:44;4.07;;;3.73;;
6288;SDS011;3177;49.880;8.836;2023-02-26T00:14:12;5.07;;;3.50;;
6288;SDS011;3177;49.880;8.836;2023-02-26T00:16:41;3.57;;;3.30;;
6288;SDS011;3177;49.880;8.836;2023-02-26T00:19:09;3.47;;;3.13;;
6288;SDS011;3177;49.880;8.836;2023-02-26T00:21:36;3.30;;;3.10;;
6288;SDS011;3177;49.880;8.836;2023-02-26T00:24:03;5.20;;;3.40;;
6288;SDS011;3177;49.880;8.836;2023-02-26T00:26:32;3.83;;;3.30;;
6288;SDS011;3177;49.880;8.836;2023-02-26T00:29:00;3.60;;;3.30;;
6288;SDS011;3177;49.880;8.836;2023-02-26T00:31:27;5.70;;;3.40;;
6288;SDS011;3177;49.880;8.836;2023-02-26T00:33:56;6.47;;;3.20;;
6288;SDS011;3177;49.880;8.836;2023-02-26T00:36:24;4.10;;;3.33;;
6288;SDS011;3177;49.880;8.836;2023-02-26T00:38:57;3.97;;;3.50;;
6288;SDS011;3177;49.880;8.836;2023-02-26T00:41:27;3.43;;;3.13;;
6288;SDS011;3177;49.880;8.836;2023-02-26T00:43:55;4.43;;;3.20;;
6288;SDS011;3177;49.880;8.836;2023-02-26T00:46:24;5.13;;;3.20;;
6288;SDS011;3177;49.880;8.836;2023-02-26T00:48:54;5.43;;;3.23;;
6288;SDS011;3177;49.880;8.836;2023-02-26T00:51:25;6.63;;;3.87;;
6288;SDS011;3177;49.880;8.836;2023-02-26T00:53:55;3.30;;;3.00;;
6288;SDS011;3177;49.880;8.836;2023-02-26T00:56:25;4.03;;;3.70;;
6288;SDS011;3177;49.880;8.836;2023-02-26T00:58:52;4.67;;;3.57;;
6288;SDS011;3177;49.880;8.836;2023-02-26T01:01:19;3.30;;;3.00;;
6288;SDS011;3177;49.880;8.836;2023-02-26T01:03:46;4.57;;;3.13;;
6288;SDS011;3177;49.880;8.836;2023-02-26T01:06:14;3.60;;;3.30;;
6288;SDS011;3177;49.880;8.836;2023-02-26T01:08:45;6.17;;;3.20;;
6288;SDS011;3177;49.880;8.836;2023-02-26T01:11:14;3.70;;;3.40;;
6288;SDS011;3177;49.880;8.836;2023-02-26T01:13:41;5.37;;;3.57;;
6288;SDS011;3177;49.880;8.836;2023-02-26T01:16:10;3.40;;;3.10;;
6288;SDS011;3177;49.880;8.836;2023-02-26T01:18:40;5.83;;;3.60;;
6288;SDS011;3177;49.880;8.836;2023-02-26T01:21:10;6.30;;;3.60;;
6288;SDS011;3177;49.880;8.836;2023-02-26T01:23:39;3.90;;;3.47;;
6288;SDS011;3177;49.880;8.836;2023-02-26T01:26:09;6.07;;;3.70;;
6288;SDS011;3177;49.880;8.836;2023-02-26T01:28:38;4.20;;;3.77;;
6288;SDS011;3177;49.880;8.836;2023-02-26T01:31:05;4.37;;;3.97;;
6288;SDS011;3177;49.880;8.836;2023-02-26T01:33:38;4.53;;;3.67;;
6288;SDS011;3177;49.880;8.836;2023-02-26T01:36:07;3.77;;;3.43;;
6288;SDS011;3177;49.880;8.836;2023-02-26T01:38:35;3.33;;;3.07;;
6288;SDS011;3177;49.880;8.836;2023-02-26T01:41:13;9.53;;;2.97;;
6288;SDS011;3177;49.880;8.836;2023-02-26T01:43:45;3.70;;;3.30;;
6288;SDS011;3177;49.880;8.836;2023-02-26T01:46:16;4.03;;;3.17;;
6288;SDS011;3177;49.880;8.836;2023-02-26T01:48:47;5.77;;;3.60;;
6288;SDS011;3177;49.880;8.836;2023-02-26T01:51:14;3.47;;;3.17;;
6288;SDS011;3177;49.880;8.836;2023-02-26T01:53:41;6.63;;;3.10;;
6288;SDS011;3177;49.880;8.836;2023-02-26T01:56:12;6.20;;;2.73;;
6288;SDS011;3177;49.880;8.836;2023-02-26T01:58:41;6.23;;;2.73;;
6288;SDS011;3177;49.880;8.836;2023-02-26T02:01:08;3.47;;;3.17;;
6288;SDS011;3177;49.880;8.836;2023-02-26T02:03:36;4.50;;;3.20;;
6288;SDS011;3177;49.880;8.836;2023-02-26T02:06:05;5.07;;;3.40;;
6288;SDS011;3177;49.880;8.836;2023-02-26T02:08:33;3.53;;;3.27;;
6288;SDS011;3177;49.880;8.836;2023-02-26T02:11:00;4.60;;;2.87;;
6288;SDS011;3177;49.880;8.836;2023-02-26T02:13:30;8.27;;;3.07;;
6288;SDS011;3177;49.880;8.836;2023-02-26T02:16:05;3.83;;;2.93;;
6288;SDS011;3177;49.880;8.836;2023-02-26T02:18:37;3.10;;;2.90;;
6288;SDS011;3177;49.880;8.836;2023-02-26T02:21:14;3.43;;;3.10;;
6288;SDS011;3177;49.880;8.836;2023-02-26T02:23:49;6.47;;;3.10;;
6288;SDS011;3177;49.880;8.836;2023-02-26T02:29:18;3.60;;;3.30;;
6288;SDS011;3177;49.880;8.836;2023-02-26T02:31:51;4.87;;;3.50;;
6288;SDS011;3177;49.880;8.836;2023-02-26T02:34:20;4.00;;;2.60;;
6288;SDS011;3177;49.880;8.836;2023-02-26T02:36:50;5.90;;;2.77;;
6288;SDS011;3177;49.880;8.836;2023-02-26T02:39:21;3.40;;;3.10;;
6288;SDS011;3177;49.880;8.836;2023-02-26T02:41:50;6.10;;;2.73;;
6288;SDS011;3177;49.880;8.836;2023-02-26T02:44:19;3.10;;;2.80;;
6288;SDS011;3177;49.880;8.836;2023-02-26T02:46:50;4.53;;;3.00;;
6288;SDS011;3177;49.880;8.836;2023-02-26T02:49:20;4.37;;;3.00;;
6288;SDS011;3177;49.880;8.836;2023-02-26T02:51:48;4.97;;;3.57;;
6288;SDS011;3177;49.880;8.836;2023-02-26T02:54:18;7.10;;;2.83;;
6288;SDS011;3177;49.880;8.836;2023-02-26T02:56:52;7.53;;;3.30;;
6288;SDS011;3177;49.880;8.836;2023-02-26T02:59:21;3.33;;;3.07;;
6288;SDS011;3177;49.880;8.836;2023-02-26T03:01:51;5.90;;;3.43;;
6288;SDS011;3177;49.880;8.836;2023-02-26T03:04:21;4.53;;;3.07;;
6288;SDS011;3177;49.880;8.836;2023-02-26T03:06:48;4.10;;;2.90;;
6288;SDS011;3177;49.880;8.836;2023-02-26T03:09:15;4.00;;;3.13;;
6288;SDS011;3177;49.880;8.836;2023-02-26T03:11:42;3.83;;;3.33;;
6288;SDS011;3177;49.880;8.836;2023-02-26T03:14:10;4.90;;;2.80;;
6288;SDS011;3177;49.880;8.836;2023-02-26T03:19:22;3.27;;;3.00;;
6288;SDS011;3177;49.880;8.836;2023-02-26T03:21:52;5.57;;;2.73;;
6288;SDS011;3177;49.880;8.836;2023-02-26T03:24:23;3.20;;;2.90;;
6288;SDS011;3177;49.880;8.836;2023-02-26T03:26:54;4.93;;;3.10;;
6288;SDS011;3177;49.880;8.836;2023-02-26T03:29:24;4.17;;;2.90;;
6288;SDS011;3177;49.880;8.836;2023-02-26T03:31:54;5.97;;;3.00;;
6288;SDS011;3177;49.880;8.836;2023-02-26T03:34:25;4.40;;;3.20;;
6288;SDS011;3177;49.880;8.836;2023-02-26T03:36:53;3.63;;;3.00;;
6288;SDS011;3177;49.880;8.836;2023-02-26T03:39:24;3.37;;;2.87;;
6288;SDS011;3177;49.880;8.836;2023-02-26T03:41:54;2.47;;;2.37;;
6288;SDS011;3177;49.880;8.836;2023-02-26T03:44:22;4.00;;;2.90;;
6288;SDS011;3177;49.880;8.836;2023-02-26T03:46:51;3.10;;;2.80;;
6288;SDS011;3177;49.880;8.836;2023-02-26T03:49:21;4.03;;;2.90;;
6288;SDS011;3177;49.880;8.836;2023-02-26T03:51:51;4.37;;;2.73;;
6288;SDS011;3177;49.880;8.836;2023-02-26T03:54:19;5.70;;;2.87;;
6288;SDS011;3177;49.880;8.836;2023-02-26T03:56:48;3.73;;;2.90;;
6288;SDS011;3177;49.880;8.836;2023-02-26T03:59:15;3.67;;;3.10;;
6288;SDS011;3177;49.880;8.836;2023-02-26T04:01:44;3.13;;;2.83;;
6288;SDS011;3177;49.880;8.836;2023-02-26T04:04:14;3.10;;;2.80;;
6288;SDS011;3177;49.880;8.836;2023-02-26T04:06:41;3.07;;;2.80;;
6288;SDS011;3177;49.880;8.836;2023-02-26T04:09:10;2.37;;;2.27;;
6288;SDS011;3177;49.880;8.836;2023-02-26T04:11:37;7.30;;;2.60;;
6288;SDS011;3177;49.880;8.836;2023-02-26T04:14:05;3.07;;;2.87;;
6288;SDS011;3177;49.880;8.836;2023-02-26T04:16:32;5.57;;;3.10;;
6288;SDS011;3177;49.880;8.836;2023-02-26T04:18:59;3.77;;;2.83;;
6288;SDS011;3177;49.880;8.836;2023-02-26T04:21:27;4.43;;;2.80;;
6288;SDS011;3177;49.880;8.836;2023-02-26T04:23:54;2.90;;;2.70;;
6288;SDS011;3177;49.880;8.836;2023-02-26T04:26:22;2.43;;;2.33;;
6288;SDS011;3177;49.880;8.836;2023-02-26T04:28:49;3.03;;;2.60;;
6288;SDS011;3177;49.880;8.836;2023-02-26T04:31:16;2.80;;;2.60;;
6288;SDS011;3177;49.880;8.836;2023-02-26T04:33:43;4.77;;;2.90;;
6288;SDS011;3177;49.880;8.836;2023-02-26T04:36:10;5.33;;;2.53;;
6288;SDS011;3177;49.880;8.836;2023-02-26T04:38:38;2.70;;;2.50;;
6288;SDS011;3177;49.880;8.836;2023-02-26T04:41:05;2.60;;;2.40;;
6288;SDS011;3177;49.880;8.836;2023-02-26T04:43:33;2.63;;;2.53;;
6288;SDS011;3177;49.880;8.836;2023-02-26T04:46:01;5.60;;;2.90;;
6288;SDS011;3177;49.880;8.836;2023-02-26T04:48:28;3.33;;;3.00;;
6288;SDS011;3177;49.880;8.836;2023-02-26T04:50:56;3.60;;;2.73;;
6288;SDS011;3177;49.880;8.836;2023-02-26T04:53:23;2.80;;;2.60;;
6288;SDS011;3177;49.880;8.836;2023-02-26T04:55:50;2.63;;;2.43;;
6288;SDS011;3177;49.880;8.836;2023-02-26T04:58:17;2.87;;;2.67;;
6288;SDS011;3177;49.880;8.836;2023-02-26T05:00:48;4.60;;;2.67;;
6288;SDS011;3177;49.880;8.836;2023-02-26T05:03:15;2.50;;;2.20;;
6288;SDS011;3177;49.880;8.836;2023-02-26T05:05:43;4.80;;;2.90;;
6288;SDS011;3177;49.880;8.836;2023-02-26T05:08:10;4.00;;;2.60;;
6288;SDS011;3177;49.880;8.836;2023-02-26T05:10:37;3.10;;;2.90;;
6288;SDS011;3177;49.880;8.836;2023-02-26T05:13:04;4.30;;;2.80;;
6288;SDS011;3177;49.880;8.836;2023-02-26T05:15:31;6.40;;;2.70;;
6288;SDS011;3177;49.880;8.836;2023-02-26T05:18:00;6.97;;;3.47;;
6288;SDS011;3177;49.880;8.836;2023-02-26T05:20:27;3.57;;;2.70;;
6288;SDS011;3177;49.880;8.836;2023-02-26T05:22:54;3.60;;;3.30;;
6288;SDS011;3177;49.880;8.836;2023-02-26T05:25:22;6.10;;;2.90;;
6288;SDS011;3177;49.880;8.836;2023-02-26T05:27:49;3.73;;;2.93;;
6288;SDS011;3177;49.880;8.836;2023-02-26T05:30:16;3.13;;;2.90;;
6288;SDS011;3177;49.880;8.836;2023-02-26T05:32:43;3.33;;;2.90;;
6288;SDS011;3177;49.880;8.836;2023-02-26T05:35:12;4.47;;;3.17;;
6288;SDS011;3177;49.880;8.836;2023-02-26T05:37:39;3.10;;;2.73;;
6288;SDS011;3177;49.880;8.836;2023-02-26T05:40:07;4.60;;;2.47;;
6288;SDS011;3177;49.880;8.836;2023-02-26T05:42:35;3.43;;;2.80;;
6288;SDS011;3177;49.880;8.836;2023-02-26T05:45:03;3.37;;;2.80;;
6288;SDS011;3177;49.880;8.836;2023-02-26T05:47:31;4.40;;;3.00;;
6288;SDS011;3177;49.880;8.836;2023-02-26T05:49:58;8.23;;;2.73;;
6288;SDS011;3177;49.880;8.836;2023-02-26T05:52:26;5.33;;;2.50;;
6288;SDS011;3177;49.880;8.836;2023-02-26T05:54:53;2.70;;;2.50;;
6288;SDS011;3177;49.880;8.836;2023-02-26T05:57:20;3.20;;;2.77;;
6288;SDS011;3177;49.880;8.836;2023-02-26T05:59:47;4.37;;;2.90;;
6288;SDS011;3177;49.880;8.836;2023-02-26T06:02:14;4.10;;;2.83;;
6288;SDS011;3177;49.880;8.836;2023-02-26T06:04:42;5.77;;;2.83;;
6288;SDS011;3177;49.880;8.836;2023-02-26T06:07:09;4.47;;;2.83;;
6288;SDS011;3177;49.880;8.836;2023-02-26T06:09:37;3.70;;;3.20;;
6288;SDS011;3177;49.880;8.836;2023-02-26T06:12:04;2.87;;;2.67;;
6288;SDS011;3177;49.880;8.836;2023-02-26T06:14:32;6.80;;;2.90;;
6288;SDS011;3177;49.880;8.836;2023-02-26T06:16:59;6.30;;;3.17;;
6288;SDS011;3177;49.880;8.836;2023-02-26T06:19:26;8.43;;;3.50;;
6288;SDS011;3177;49.880;8.836;2023-02-26T06:21:53;3.73;;;2.70;;
6288;SDS011;3177;49.880;8.836;2023-02-26T06:24:20;6.30;;;3.17;;
6288;SDS011;3177;49.880;8.836;2023-02-26T06:26:49;5.43;;;3.27;;
6288;SDS011;3177;49.880;8.836;2023-02-26T06:29:16;6.50;;;2.80;;
6288;SDS011;3177;49.880;8.836;2023-02-26T06:31:45;4.73;;;3.30;;
6288;SDS011;3177;49.880;8.836;2023-02-26T06:34:12;5.80;;;3.20;;
6288;SDS011;3177;49.880;8.836;2023-02-26T06:36:39;3.40;;;2.87;;
6288;SDS011;3177;49.880;8.836;2023-02-26T06:39:06;3.53;;;3.23;;
6288;SDS011;3177;49.880;8.836;2023-02-26T06:41:33;4.43;;;3.03;;
6288;SDS011;3177;49.880;8.836;2023-02-26T06:44:01;3.70;;;3.37;;
6288;SDS011;3177;49.880;8.836;2023-02-26T06:46:29;3.73;;;3.00;;
6288;SDS011;3177;49.880;8.836;2023-02-26T06:48:56;8.70;;;3.60;;
6288;SDS011;3177;49.880;8.836;2023-02-26T06:51:24;3.00;;;2.80;;
6288;SDS011;3177;49.880;8.836;2023-02-26T06:53:51;5.73;;;3.43;;
6288;SDS011;3177;49.880;8.836;2023-02-26T06:56:18;6.40;;;3.67;;
6288;SDS011;3177;49.880;8.836;2023-02-26T06:58:46;3.57;;;3.10;;
6288;SDS011;3177;49.880;8.836;2023-02-26T07:01:14;3.83;;;3.30;;
6288;SDS011;3177;49.880;8.836;2023-02-26T07:03:42;3.97;;;3.33;;
6288;SDS011;3177;49.880;8.836;2023-02-26T07:06:09;3.47;;;3.17;;
6288;SDS011;3177;49.880;8.836;2023-02-26T07:08:37;3.63;;;3.33;;
6288;SDS011;3177;49.880;8.836;2023-02-26T07:11:05;3.57;;;3.33;;
6288;SDS011;3177;49.880;8.836;2023-02-26T07:13:32;5.57;;;3.67;;
6288;SDS011;3177;49.880;8.836;2023-02-26T07:15:59;3.73;;;3.37;;
6288;SDS011;3177;49.880;8.836;2023-02-26T07:18:28;6.73;;;3.17;;
6288;SDS011;3177;49.880;8.836;2023-02-26T07:20:55;4.43;;;3.77;;
6288;SDS011;3177;49.880;8.836;2023-02-26T07:23:22;4.67;;;3.50;;
6288;SDS011;3177;49.880;8.836;2023-02-26T07:25:49;4.93;;;3.60;;
6288;SDS011;3177;49.880;8.836;2023-02-26T07:28:16;3.80;;;3.57;;
6288;SDS011;3177;49.880;8.836;2023-02-26T07:30:44;9.80;;;3.93;;
6288;SDS011;3177;49.880;8.836;2023-02-26T07:33:11;3.83;;;2.93;;
6288;SDS011;3177;49.880;8.836;2023-02-26T07:35:40;5.43;;;3.30;;
6288;SDS011;3177;49.880;8.836;2023-02-26T07:38:07;4.27;;;3.50;;
6288;SDS011;3177;49.880;8.836;2023-02-26T07:40:34;5.80;;;3.70;;
6288;SDS011;3177;49.880;8.836;2023-02-26T07:43:01;5.20;;;3.40;;
6288;SDS011;3177;49.880;8.836;2023-02-26T07:45:28;3.63;;;3.33;;
6288;SDS011;3177;49.880;8.836;2023-02-26T07:47:55;4.07;;;3.20;;
6288;SDS011;3177;49.880;8.836;2023-02-26T07:50:32;4.23;;;3.27;;
6288;SDS011;3177;49.880;8.836;2023-02-26T07:53:00;3.00;;;2.80;;
6288;SDS011;3177;49.880;8.836;2023-02-26T07:55:28;3.63;;;3.33;;
6288;SDS011;3177;49.880;8.836;2023-02-26T07:57:55;6.57;;;3.40;;
6288;SDS011;3177;49.880;8.836;2023-02-26T08:00:22;3.53;;;3.07;;
6288;SDS011;3177;49.880;8.836;2023-02-26T08:02:49;3.80;;;3.40;;
6288;SDS011;3177;49.880;8.836;2023-02-26T08:05:16;3.40;;;3.20;;
6288;SDS011;3177;49.880;8.836;2023-02-26T08:07:43;3.03;;;2.83;;
6288;SDS011;3177;49.880;8.836;2023-02-26T08:10:12;4.03;;;3.00;;
6288;SDS011;3177;49.880;8.836;2023-02-26T08:12:40;2.80;;;2.67;;
6288;SDS011;3177;49.880;8.836;2023-02-26T08:15:07;3.33;;;3.00;;
6288;SDS011;3177;49.880;8.836;2023-02-26T08:17:36;3.90;;;2.97;;
6288;SDS011;3177;49.880;8.836;2023-02-26T08:20:03;2.47;;;2.37;;
6288;SDS011;3177;49.880;8.836;2023-02-26T08:22:30;2.70;;;2.50;;
6288;SDS011;3177;49.880;8.836;2023-02-26T08:24:57;3.60;;;2.97;;
6288;SDS011;3177;49.880;8.836;2023-02-26T08:27:29;3.03;;;2.83;;
6288;SDS011;3177;49.880;8.836;2023-02-26T08:30:00;2.30;;;2.20;;
6288;SDS011;3177;49.880;8.836;2023-02-26T08:32:41;2.70;;;2.60;;
6288;SDS011;3177;49.880;8.836;2023-02-26T08:35:31;4.90;;;3.07;;
6288;SDS011;3177;49.880;8.836;2023-02-26T08:38:18;3.83;;;2.53;;
6288;SDS011;3177;49.880;8.836;2023-02-26T08:40:47;2.57;;;2.47;;
6288;SDS011;3177;49.880;8.836;2023-02-26T08:43:17;2.90;;;2.70;;
6288;SDS011;3177;49.880;8.836;2023-02-26T08:45:45;2.77;;;2.60;;
6288;SDS011;3177;49.880;8.836;2023-02-26T08:48:14;5.10;;;2.63;;
6288;SDS011;3177;49.880;8.836;2023-02-26T08:50:41;4.57;;;2.90;;
6288;SDS011;3177;49.880;8.836;2023-02-26T08:53:08;2.83;;;2.63;;
6288;SDS011;3177;49.880;8.836;2023-02-26T08:55:35;4.17;;;2.33;;
6288;SDS011;3177;49.880;8.836;2023-02-26T08:58:03;3.30;;;2.97;;
6288;SDS011;3177;49.880;8.836;2023-02-26T09:00:31;2.67;;;2.57;;
6288;SDS011;3177;49.880;8.836;2023-02-26T09:02:58;2.90;;;2.70;;
6288;SDS011;3177;49.880;8.836;2023-02-26T09:05:26;3.00;;;2.70;;
6288;SDS011;3177;49.880;8.836;2023-02-26T09:07:53;3.30;;;2.50;;
6288;SDS011;3177;49.880;8.836;2023-02-26T09:10:27;2.70;;;2.50;;
6288;SDS011;3177;49.880;8.836;2023-02-26T09:12:54;2.67;;;2.40;;
6288;SDS011;3177;49.880;8.836;2023-02-26T09:15:21;4.43;;;2.60;;
6288;SDS011;3177;49.880;8.836;2023-02-26T09:17:49;2.30;;;2.20;;
6288;SDS011;3177;49.880;8.836;2023-02-26T09:20:17;1.80;;;1.70;;
6288;SDS011;3177;49.880;8.836;2023-02-26T09:22:44;2.10;;;2.00;;
6288;SDS011;3177;49.880;8.836;2023-02-26T09:25:11;4.50;;;2.30;;
6288;SDS011;3177;49.880;8.836;2023-02-26T09:27:40;2.23;;;2.00;;
6288;SDS011;3177;49.880;8.836;2023-02-26T09:30:08;2.00;;;1.90;;
6288;SDS011;3177;49.880;8.836;2023-02-26T09:32:35;3.63;;;1.83;;
6288;SDS011;3177;49.880;8.836;2023-02-26T09:37:49;2.60;;;2.10;;
6288;SDS011;3177;49.880;8.836;2023-02-26T09:40:20;2.70;;;2.50;;
6288;SDS011;3177;49.880;8.836;2023-02-26T09:42:51;4.60;;;2.80;;
6288;SDS011;3177;49.880;8.836;2023-02-26T09:45:24;2.07;;;1.97;;
6288;SDS011;3177;49.880;8.836;2023-02-26T09:47:52;1.77;;;1.77;;
6288;SDS011;3177;49.880;8.836;2023-02-26T09:50:20;2.10;;;2.00;;
6288;SDS011;3177;49.880;8.836;2023-02-26T09:52:50;2.57;;;2.30;;
6288;SDS011;3177;49.880;8.836;2023-02-26T09:55:23;2.37;;;2.10;;
6288;SDS011;3177;49.880;8.836;2023-02-26T09:57:53;2.00;;;1.90;;
6288;SDS011;3177;49.880;8.836;2023-02-26T10:00:22;2.20;;;2.00;;
6288;SDS011;3177;49.880;8.836;2023-02-26T10:02:54;2.00;;;1.90;;
6288;SDS011;3177;49.880;8.836;2023-02-26T10:05:26;2.33;;;2.20;;
6288;SDS011;3177;49.880;8.836;2023-02-26T10:10:31;2.67;;;2.07;;
6288;SDS011;3177;49.880;8.836;2023-02-26T10:12:59;2.53;;;2.33;;
6288;SDS011;3177;49.880;8.836;2023-02-26T10:18:01;2.60;;;2.00;;
6288;SDS011;3177;49.880;8.836;2023-02-26T10:20:30;2.37;;;2.27;;
6288;SDS011;3177;49.880;8.836;2023-02-26T10:22:59;2.60;;;2.37;;
6288;SDS011;3177;49.880;8.836;2023-02-26T10:25:28;2.40;;;2.20;;
6288;SDS011;3177;49.880;8.836;2023-02-26T10:27:59;2.40;;;2.20;;
6288;SDS011;3177;49.880;8.836;2023-02-26T10:30:31;2.07;;;1.97;;
6288;SDS011;3177;49.880;8.836;2023-02-26T10:33:02;1.60;;;1.60;;
6288;SDS011;3177;49.880;8.836;2023-02-26T10:35:30;2.10;;;2.00;;
6288;SDS011;3177;49.880;8.836;2023-02-26T10:37:59;2.30;;;2.10;;
6288;SDS011;3177;49.880;8.836;2023-02-26T10:40:29;2.03;;;1.93;;
6288;SDS011;3177;49.880;8.836;2023-02-26T10:42:59;2.30;;;2.20;;
6288;SDS011;3177;49.880;8.836;2023-02-26T10:45:29;2.30;;;1.90;;
6288;SDS011;3177;49.880;8.836;2023-02-26T10:48:02;2.50;;;2.30;;
6288;SDS011;3177;49.880;8.836;2023-02-26T10:50:32;1.87;;;1.87;;
6288;SDS011;3177;49.880;8.836;2023-02-26T10:53:00;2.50;;;1.90;;
6288;SDS011;3177;49.880;8.836;2023-02-26T10:55:33;2.17;;;2.07;;
6288;SDS011;3177;49.880;8.836;2023-02-26T10:58:04;3.20;;;2.00;;
6288;SDS011;3177;49.880;8.836;2023-02-26T11:00:32;1.80;;;1.70;;
6288;SDS011;3177;49.880;8.836;2023-02-26T11:03:00;2.87;;;1.83;;
6288;SDS011;3177;49.880;8.836;2023-02-26T11:05:28;1.77;;;1.67;;
6288;SDS011;3177;49.880;8.836;2023-02-26T11:07:56;1.83;;;1.77;;
6288;SDS011;3177;49.880;8.836;2023-02-26T11:10:25;1.80;;;1.70;;
6288;SDS011;3177;49.880;8.836;2023-02-26T11:12:55;1.90;;;1.80;;
6288;SDS011;3177;49.880;8.836;2023-02-26T11:15:25;2.00;;;1.90;;
6288;SDS011;3177;49.880;8.836;2023-02-26T11:17:55;2.00;;;1.90;;
6288;SDS011;3177;49.880;8.836;2023-02-26T11:20:25;2.93;;;1.77;;
6288;SDS011;3177;49.880;8.836;2023-02-26T11:22:54;1.70;;;1.60;;
6288;SDS011;3177;49.880;8.836;2023-02-26T11:25:26;1.90;;;1.80;;
6288;SDS011;3177;49.880;8.836;2023-02-26T11:27:55;4.17;;;1.80;;
6288;SDS011;3177;49.880;8.836;2023-02-26T11:30:24;2.07;;;1.83;;
6288;SDS011;3177;49.880;8.836;2023-02-26T11:32:55;1.70;;;1.60;;
6288;SDS011;3177;49.880;8.836;2023-02-26T11:35:23;2.50;;;1.93;;
6288;SDS011;3177;49.880;8.836;2023-02-26T11:37:52;2.00;;;1.90;;
6288;SDS011;3177;49.880;8.836;2023-02-26T11:40:22;2.60;;;1.90;;
6288;SDS011;3177;49.880;8.836;2023-02-26T11:42:51;1.60;;;1.50;;
6288;SDS011;3177;49.880;8.836;2023-02-26T11:45:19;1.50;;;1.50;;
6288;SDS011;3177;49.880;8.836;2023-02-26T11:47:46;1.90;;;1.80;;
6288;SDS011;3177;49.880;8.836;2023-02-26T11:50:18;1.67;;;1.67;;
6288;SDS011;3177;49.880;8.836;2023-02-26T11:52:47;2.40;;;1.90;;
6288;SDS011;3177;49.880;8.836;2023-02-26T11:55:20;1.33;;;1.33;;
6288;SDS011;3177;49.880;8.836;2023-02-26T11:57:49;2.00;;;1.90;;
6288;SDS011;3177;49.880;8.836;2023-02-26T12:00:18;1.70;;;1.60;;
6288;SDS011;3177;49.880;8.836;2023-02-26T12:02:46;1.70;;;1.70;;
6288;SDS011;3177;49.880;8.836;2023-02-26T12:05:14;1.67;;;1.67;;
6288;SDS011;3177;49.880;8.836;2023-02-26T12:07:43;1.80;;;1.70;;
6288;SDS011;3177;49.880;8.836;2023-02-26T12:10:13;1.90;;;1.80;;
6288;SDS011;3177;49.880;8.836;2023-02-26T12:12:50;2.43;;;1.70;;
6288;SDS011;3177;49.880;8.836;2023-02-26T12:15:21;1.60;;;1.60;;
6288;SDS011;3177;49.880;8.836;2023-02-26T12:17:55;1.40;;;1.40;;
6288;SDS011;3177;49.880;8.836;2023-02-26T12:20:24;1.47;;;1.47;;
6288;SDS011;3177;49.880;8.836;2023-02-26T12:22:59;2.00;;;1.90;;
6288;SDS011;3177;49.880;8.836;2023-02-26T12:28:26;1.50;;;1.50;;
6288;SDS011;3177;49.880;8.836;2023-02-26T12:31:03;2.10;;;2.00;;
6288;SDS011;3177;49.880;8.836;2023-02-26T12:33:40;1.70;;;1.60;;
6288;SDS011;3177;49.880;8.836;2023-02-26T12:36:14;1.90;;;1.77;;
6288;SDS011;3177;49.880;8.836;2023-02-26T12:38:48;1.97;;;1.87;;
6288;SDS011;3177;49.880;8.836;2023-02-26T12:44:08;1.63;;;1.53;;
6288;SDS011;3177;49.880;8.836;2023-02-26T12:46:49;1.87;;;1.77;;
6288;SDS011;3177;49.880;8.836;2023-02-26T12:52:12;1.83;;;1.73;;
6288;SDS011;3177;49.880;8.836;2023-02-26T12:54:48;1.83;;;1.73;;
6288;SDS011;3177;49.880;8.836;2023-02-26T12:57:39;1.80;;;1.70;;
6288;SDS011;3177;49.880;8.836;2023-02-26T13:00:14;1.90;;;1.80;;
6288;SDS011;3177;49.880;8.836;2023-02-26T13:05:41;1.53;;;1.50;;
6288;SDS011;3177;49.880;8.836;2023-02-26T13:08:14;1.60;;;1.60;;
6288;SDS011;3177;49.880;8.836;2023-02-26T13:10:50;2.00;;;1.80;;
6288;SDS011;3177;49.880;8.836;2023-02-26T13:13:24;2.30;;;1.83;;
6288;SDS011;3177;49.880;8.836;2023-02-26T13:15:57;1.90;;;1.77;;
6288;SDS011;3177;49.880;8.836;2023-02-26T13:18:30;1.67;;;1.50;;
6288;SDS011;3177;49.880;8.836;2023-02-26T13:21:00;1.50;;;1.50;;
6288;SDS011;3177;49.880;8.836;2023-02-26T13:23:29;1.73;;;1.57;;
6288;SDS011;3177;49.880;8.836;2023-02-26T13:25:59;1.90;;;1.80;;
6288;SDS011;3177;49.880;8.836;2023-02-26T13:28:31;1.87;;;1.80;;
6288;SDS011;3177;49.880;8.836;2023-02-26T13:31:03;1.80;;;1.60;;
6288;SDS011;3177;49.880;8.836;2023-02-26T13:33:32;1.70;;;1.70;;
6288;SDS011;3177;49.880;8.836;2023-02-26T13:36:00;1.67;;;1.60;;
6288;SDS011;3177;49.880;8.836;2023-02-26T13:38:32;1.50;;;1.50;;
6288;SDS011;3177;49.880;8.836;2023-02-26T13:41:04;1.73;;;1.63;;
6288;SDS011;3177;49.880;8.836;2023-02-26T13:43:36;1.90;;;1.80;;
6288;SDS011;3177;49.880;8.836;2023-02-26T13:46:10;1.90;;;1.80;;
6288;SDS011;3177;49.880;8.836;2023-02-26T13:48:40;1.57;;;1.57;;
6288;SDS011;3177;49.880;8.836;2023-02-26T13:51:12;1.60;;;1.60;;
6288;SDS011;3177;49.880;8.836;2023-02-26T13:53:45;1.87;;;1.83;;
6288;SDS011;3177;49.880;8.836;2023-02-26T13:56:16;1.70;;;1.60;;
6288;SDS011;3177;49.880;8.836;2023-02-26T13:58:47;1.60;;;1.60;;
6288;SDS011;3177;49.880;8.836;2023-02-26T14:01:16;1.63;;;1.50;;
6288;SDS011;3177;49.880;8.836;2023-02-26T14:03:45;1.60;;;1.60;;
6288;SDS011;3177;49.880;8.836;2023-02-26T14:09:04;1.73;;;1.67;;
6288;SDS011;3177;49.880;8.836;2023-02-26T14:11:36;1.80;;;1.70;;
6288;SDS011;3177;49.880;8.836;2023-02-26T14:14:05;2.60;;;1.57;;
6288;SDS011;3177;49.880;8.836;2023-02-26T14:16:38;1.60;;;1.50;;
6288;SDS011;3177;49.880;8.836;2023-02-26T14:19:14;1.60;;;1.50;;
6288;SDS011;3177;49.880;8.836;2023-02-26T14:21:48;3.90;;;1.70;;
6288;SDS011;3177;49.880;8.836;2023-02-26T14:24:16;1.83;;;1.40;;
6288;SDS011;3177;49.880;8.836;2023-02-26T14:26:47;1.60;;;1.50;;
6288;SDS011;3177;49.880;8.836;2023-02-26T14:29:19;3.17;;;1.70;;
6288;SDS011;3177;49.880;8.836;2023-02-26T14:31:52;1.67;;;1.60;;
6288;SDS011;3177;49.880;8.836;2023-02-26T14:34:20;1.50;;;1.50;;
6288;SDS011;3177;49.880;8.836;2023-02-26T14:36:50;2.00;;;1.80;;
6288;SDS011;3177;49.880;8.836;2023-02-26T14:39:23;1.80;;;1.70;;
6288;SDS011;3177;49.880;8.836;2023-02-26T14:41:54;1.77;;;1.70;;
6288;SDS011;3177;49.880;8.836;2023-02-26T14:44:23;1.40;;;1.40;;
6288;SDS011;3177;49.880;8.836;2023-02-26T14:46:51;1.60;;;1.50;;
6288;SDS011;3177;49.880;8.836;2023-02-26T14:49:28;1.90;;;1.80;;
6288;SDS011;3177;49.880;8.836;2023-02-26T14:52:01;1.73;;;1.67;;
6288;SDS011;3177;49.880;8.836;2023-02-26T14:54:32;1.97;;;1.77;;
6288;SDS011;3177;49.880;8.836;2023-02-26T14:57:05;1.50;;;1.50;;
6288;SDS011;3177;49.880;8.836;2023-02-26T14:59:49;1.53;;;1.53;;
6288;SDS011;3177;49.880;8.836;2023-02-26T15:02:23;1.70;;;1.60;;
6288;SDS011;3177;49.880;8.836;2023-02-26T15:07:38;1.97;;;1.87;;
6288;SDS011;3177;49.880;8.836;2023-02-26T15:10:13;2.20;;;1.70;;
6288;SDS011;3177;49.880;8.836;2023-02-26T15:12:47;1.97;;;1.87;;
6288;SDS011;3177;49.880;8.836;2023-02-26T15:15:21;1.57;;;1.57;;
6288;SDS011;3177;49.880;8.836;2023-02-26T15:17:56;2.37;;;2.27;;
6288;SDS011;3177;49.880;8.836;2023-02-26T15:20:30;2.50;;;1.97;;
6288;SDS011;3177;49.880;8.836;2023-02-26T15:23:09;1.80;;;1.70;;
6288;SDS011;3177;49.880;8.836;2023-02-26T15:25:39;2.00;;;1.90;;
6288;SDS011;3177;49.880;8.836;2023-02-26T15:28:11;1.47;;;1.47;;
6288;SDS011;3177;49.880;8.836;2023-02-26T15:30:39;1.70;;;1.60;;
6288;SDS011;3177;49.880;8.836;2023-02-26T15:33:12;1.83;;;1.67;;
6288;SDS011;3177;49.880;8.836;2023-02-26T15:35:50;1.30;;;1.30;;
6288;SDS011;3177;49.880;8.836;2023-02-26T15:38:17;1.93;;;1.83;;
6288;SDS011;3177;49.880;8.836;2023-02-26T15:40:46;2.83;;;1.80;;
6288;SDS011;3177;49.880;8.836;2023-02-26T15:43:19;2.37;;;1.77;;
6288;SDS011;3177;49.880;8.836;2023-02-26T15:45:48;2.60;;;2.10;;
6288;SDS011;3177;49.880;8.836;2023-02-26T15:48:17;1.73;;;1.63;;
6288;SDS011;3177;49.880;8.836;2023-02-26T15:50:46;1.40;;;1.40;;
6288;SDS011;3177;49.880;8.836;2023-02-26T15:53:23;1.83;;;1.73;;
6288;SDS011;3177;49.880;8.836;2023-02-26T15:55:53;1.60;;;1.50;;
6288;SDS011;3177;49.880;8.836;2023-02-26T15:58:32;1.73;;;1.70;;
6288;SDS011;3177;49.880;8.836;2023-02-26T16:01:02;2.03;;;1.90;;